sensor_id;sensor_type;location;lat;lon;timestamp;temperature;humidity
17815;DHT22;9031;50.974;11.330;2022-07-22T00:02:22;21.00;99.90
17815;DHT22;9031;50.974;11.330;2022-07-22T00:04:47;20.90;99.90
17815;DHT22;9031;50.974;11.330;2022-07-22T00:07:13;20.90;99.90
17815;DHT22;9031;50.974;11.330;2022-07-22T00:09:39;20.90;99.90
17815;DHT22;9031;50.974;11.330;2022-07-22T00:12:04;20.80;99.90
17815;DHT22;9031;50.974;11.330;2022-07-22T00:14:30;20.80;99.90
17815;DHT22;9031;50.974;11.330;2022-07-22T00:16:55;20.80;99.90
17815;DHT22;9031;50.974;11.330;2022-07-22T00:19:21;20.80;99.90
17815;DHT22;9031;50.974;11.330;2022-07-22T00:21:47;20.90;99.90
17815;DHT22;9031;50.974;11.330;2022-07-22T00:24:13;20.80;99.90
17815;DHT22;9031;50.974;11.330;2022-07-22T00:26:39;20.70;99.90
17815;DHT22;9031;50.974;11.330;2022-07-22T00:29:04;20.70;99.90
17815;DHT22;9031;50.974;11.330;2022-07-22T00:31:30;20.70;99.90
17815;DHT22;9031;50.974;11.330;2022-07-22T00:33:56;20.70;99.90
17815;DHT22;9031;50.974;11.330;2022-07-22T00:36:22;20.70;99.90
17815;DHT22;9031;50.974;11.330;2022-07-22T00:38:47;20.70;99.90
17815;DHT22;9031;50.974;11.330;2022-07-22T00:41:13;20.80;99.90
17815;DHT22;9031;50.974;11.330;2022-07-22T00:43:51;20.80;99.90
17815;DHT22;9031;50.974;11.330;2022-07-22T00:46:17;20.80;99.90
17815;DHT22;9031;50.974;11.330;2022-07-22T00:48:43;20.80;99.90
17815;DHT22;9031;50.974;11.330;2022-07-22T00:51:08;20.80;99.90
17815;DHT22;9031;50.974;11.330;2022-07-22T00:53:34;20.80;99.90
17815;DHT22;9031;50.974;11.330;2022-07-22T00:56:01;20.80;99.90
17815;DHT22;9031;50.974;11.330;2022-07-22T00:58:26;20.80;99.90
17815;DHT22;9031;50.974;11.330;2022-07-22T01:00:52;20.80;99.90
17815;DHT22;9031;50.974;11.330;2022-07-22T01:03:17;20.70;99.90
17815;DHT22;9031;50.974;11.330;2022-07-22T01:05:43;20.80;99.90
17815;DHT22;9031;50.974;11.330;2022-07-22T01:08:09;20.80;99.90
17815;DHT22;9031;50.974;11.330;2022-07-22T01:10:34;20.80;99.90
17815;DHT22;9031;50.974;11.330;2022-07-22T01:13:00;20.90;99.90
17815;DHT22;9031;50.974;11.330;2022-07-22T01:15:25;20.90;99.90
17815;DHT22;9031;50.974;11.330;2022-07-22T01:17:51;20.80;99.90
17815;DHT22;9031;50.974;11.330;2022-07-22T01:20:17;20.70;99.90
17815;DHT22;9031;50.974;11.330;2022-07-22T01:22:42;20.70;99.90
17815;DHT22;9031;50.974;11.330;2022-07-22T01:25:10;20.80;99.90
17815;DHT22;9031;50.974;11.330;2022-07-22T01:27:36;20.80;99.90
17815;DHT22;9031;50.974;11.330;2022-07-22T01:30:03;20.80;99.90
17815;DHT22;9031;50.974;11.330;2022-07-22T01:32:29;20.70;99.90
17815;DHT22;9031;50.974;11.330;2022-07-22T01:34:55;20.60;99.90
17815;DHT22;9031;50.974;11.330;2022-07-22T01:37:20;20.60;99.90
17815;DHT22;9031;50.974;11.330;2022-07-22T01:39:46;20.60;99.90
17815;DHT22;9031;50.974;11.330;2022-07-22T01:42:11;20.60;99.90
17815;DHT22;9031;50.974;11.330;2022-07-22T01:44:37;20.70;99.90
17815;DHT22;9031;50.974;11.330;2022-07-22T01:47:03;20.70;99.90
17815;DHT22;9031;50.974;11.330;2022-07-22T01:49:28;20.60;99.90
17815;DHT22;9031;50.974;11.330;2022-07-22T01:51:54;20.60;99.90
17815;DHT22;9031;50.974;11.330;2022-07-22T01:54:19;20.70;99.90
17815;DHT22;9031;50.974;11.330;2022-07-22T01:56:45;20.70;99.90
17815;DHT22;9031;50.974;11.330;2022-07-22T01:59:10;20.60;99.90
17815;DHT22;9031;50.974;11.330;2022-07-22T02:01:36;20.50;99.90
17815;DHT22;9031;50.974;11.330;2022-07-22T02:04:02;20.50;99.90
17815;DHT22;9031;50.974;11.330;2022-07-22T02:06:27;20.50;99.90
17815;DHT22;9031;50.974;11.330;2022-07-22T02:08:53;20.40;99.90
17815;DHT22;9031;50.974;11.330;2022-07-22T02:11:18;20.40;99.90
17815;DHT22;9031;50.974;11.330;2022-07-22T02:13:44;20.30;99.90
17815;DHT22;9031;50.974;11.330;2022-07-22T02:16:09;20.30;99.90
17815;DHT22;9031;50.974;11.330;2022-07-22T02:18:35;20.30;99.90
17815;DHT22;9031;50.974;11.330;2022-07-22T02:21:00;20.30;99.90
17815;DHT22;9031;50.974;11.330;2022-07-22T02:23:26;20.20;99.90
17815;DHT22;9031;50.974;11.330;2022-07-22T02:25:51;20.20;99.90
17815;DHT22;9031;50.974;11.330;2022-07-22T02:28:17;20.10;99.90
17815;DHT22;9031;50.974;11.330;2022-07-22T02:30:43;20.10;99.90
17815;DHT22;9031;50.974;11.330;2022-07-22T02:33:08;20.00;99.90
17815;DHT22;9031;50.974;11.330;2022-07-22T02:35:34;20.00;99.90
17815;DHT22;9031;50.974;11.330;2022-07-22T02:37:59;20.00;99.90
17815;DHT22;9031;50.974;11.330;2022-07-22T02:40:25;20.00;99.90
17815;DHT22;9031;50.974;11.330;2022-07-22T02:42:50;20.00;99.90
17815;DHT22;9031;50.974;11.330;2022-07-22T02:45:16;19.90;99.90
17815;DHT22;9031;50.974;11.330;2022-07-22T02:47:54;19.90;99.90
17815;DHT22;9031;50.974;11.330;2022-07-22T02:50:21;19.90;99.90
17815;DHT22;9031;50.974;11.330;2022-07-22T02:52:47;19.80;99.90
17815;DHT22;9031;50.974;11.330;2022-07-22T02:55:12;19.80;99.90
17815;DHT22;9031;50.974;11.330;2022-07-22T02:57:38;19.60;99.90
17815;DHT22;9031;50.974;11.330;2022-07-22T03:00:05;19.60;99.90
17815;DHT22;9031;50.974;11.330;2022-07-22T03:02:32;19.60;99.90
17815;DHT22;9031;50.974;11.330;2022-07-22T03:04:57;19.60;99.90
17815;DHT22;9031;50.974;11.330;2022-07-22T03:07:23;19.70;99.90
17815;DHT22;9031;50.974;11.330;2022-07-22T03:09:48;19.60;99.90
17815;DHT22;9031;50.974;11.330;2022-07-22T03:12:14;19.60;99.90
17815;DHT22;9031;50.974;11.330;2022-07-22T03:14:39;19.60;99.90
17815;DHT22;9031;50.974;11.330;2022-07-22T03:17:05;19.60;99.90
17815;DHT22;9031;50.974;11.330;2022-07-22T03:19:30;19.50;99.90
17815;DHT22;9031;50.974;11.330;2022-07-22T03:21:56;19.70;99.90
17815;DHT22;9031;50.974;11.330;2022-07-22T03:24:21;19.60;99.90
17815;DHT22;9031;50.974;11.330;2022-07-22T03:26:47;19.70;99.90
17815;DHT22;9031;50.974;11.330;2022-07-22T03:29:12;19.60;99.90
17815;DHT22;9031;50.974;11.330;2022-07-22T03:31:38;19.70;99.90
17815;DHT22;9031;50.974;11.330;2022-07-22T03:34:04;19.70;99.90
17815;DHT22;9031;50.974;11.330;2022-07-22T03:36:29;19.70;99.90
17815;DHT22;9031;50.974;11.330;2022-07-22T03:38:55;19.70;99.90
17815;DHT22;9031;50.974;11.330;2022-07-22T03:41:20;19.80;99.90
17815;DHT22;9031;50.974;11.330;2022-07-22T03:43:47;19.80;99.90
17815;DHT22;9031;50.974;11.330;2022-07-22T03:46:13;19.80;99.90
17815;DHT22;9031;50.974;11.330;2022-07-22T03:48:39;19.80;99.90
17815;DHT22;9031;50.974;11.330;2022-07-22T03:51:05;19.90;99.90
17815;DHT22;9031;50.974;11.330;2022-07-22T03:53:31;19.90;99.90
17815;DHT22;9031;50.974;11.330;2022-07-22T03:55:58;20.00;99.90
17815;DHT22;9031;50.974;11.330;2022-07-22T03:58:24;20.00;99.90
17815;DHT22;9031;50.974;11.330;2022-07-22T04:00:49;20.10;99.90
17815;DHT22;9031;50.974;11.330;2022-07-22T04:03:15;20.10;99.90
17815;DHT22;9031;50.974;11.330;2022-07-22T04:05:41;20.00;99.90
17815;DHT22;9031;50.974;11.330;2022-07-22T04:08:06;20.00;99.90
17815;DHT22;9031;50.974;11.330;2022-07-22T04:10:32;20.10;99.90
17815;DHT22;9031;50.974;11.330;2022-07-22T04:12:57;20.10;99.90
17815;DHT22;9031;50.974;11.330;2022-07-22T04:15:23;20.10;99.90
17815;DHT22;9031;50.974;11.330;2022-07-22T04:17:48;20.00;99.90
17815;DHT22;9031;50.974;11.330;2022-07-22T04:20:14;20.10;99.90
17815;DHT22;9031;50.974;11.330;2022-07-22T04:22:39;20.10;99.90
17815;DHT22;9031;50.974;11.330;2022-07-22T04:25:05;20.20;99.90
17815;DHT22;9031;50.974;11.330;2022-07-22T04:27:31;20.20;99.90
17815;DHT22;9031;50.974;11.330;2022-07-22T04:29:56;20.30;99.90
17815;DHT22;9031;50.974;11.330;2022-07-22T04:32:22;20.20;99.90
17815;DHT22;9031;50.974;11.330;2022-07-22T04:34:48;20.20;99.90
17815;DHT22;9031;50.974;11.330;2022-07-22T04:37:13;20.10;99.90
17815;DHT22;9031;50.974;11.330;2022-07-22T04:39:39;20.10;99.90
17815;DHT22;9031;50.974;11.330;2022-07-22T04:42:04;20.10;99.90
17815;DHT22;9031;50.974;11.330;2022-07-22T04:44:30;20.10;99.90
17815;DHT22;9031;50.974;11.330;2022-07-22T04:46:56;20.10;99.90
17815;DHT22;9031;50.974;11.330;2022-07-22T04:49:21;20.20;99.90
17815;DHT22;9031;50.974;11.330;2022-07-22T04:51:46;20.30;99.90
17815;DHT22;9031;50.974;11.330;2022-07-22T04:54:12;20.40;99.90
17815;DHT22;9031;50.974;11.330;2022-07-22T04:56:38;20.30;99.90
17815;DHT22;9031;50.974;11.330;2022-07-22T04:59:03;20.40;99.90
17815;DHT22;9031;50.974;11.330;2022-07-22T05:01:29;20.40;99.90
17815;DHT22;9031;50.974;11.330;2022-07-22T05:03:54;20.40;99.90
17815;DHT22;9031;50.974;11.330;2022-07-22T05:06:20;20.50;99.90
17815;DHT22;9031;50.974;11.330;2022-07-22T05:08:45;20.60;99.90
17815;DHT22;9031;50.974;11.330;2022-07-22T05:11:11;20.70;99.90
17815;DHT22;9031;50.974;11.330;2022-07-22T05:13:37;20.80;99.90
17815;DHT22;9031;50.974;11.330;2022-07-22T05:16:04;20.90;99.90
17815;DHT22;9031;50.974;11.330;2022-07-22T05:18:29;20.90;99.90
17815;DHT22;9031;50.974;11.330;2022-07-22T05:20:55;20.90;99.90
17815;DHT22;9031;50.974;11.330;2022-07-22T05:23:20;21.10;99.90
17815;DHT22;9031;50.974;11.330;2022-07-22T05:25:46;21.20;99.90
17815;DHT22;9031;50.974;11.330;2022-07-22T05:28:12;21.30;99.90
17815;DHT22;9031;50.974;11.330;2022-07-22T05:30:37;21.30;99.90
17815;DHT22;9031;50.974;11.330;2022-07-22T05:33:03;21.20;99.90
17815;DHT22;9031;50.974;11.330;2022-07-22T05:35:28;21.20;99.90
17815;DHT22;9031;50.974;11.330;2022-07-22T05:37:54;21.30;99.90
17815;DHT22;9031;50.974;11.330;2022-07-22T05:40:20;21.30;99.90
17815;DHT22;9031;50.974;11.330;2022-07-22T05:42:45;21.40;99.90
17815;DHT22;9031;50.974;11.330;2022-07-22T05:45:11;21.60;99.90
17815;DHT22;9031;50.974;11.330;2022-07-22T05:47:36;21.80;99.90
17815;DHT22;9031;50.974;11.330;2022-07-22T05:50:02;21.70;99.90
17815;DHT22;9031;50.974;11.330;2022-07-22T05:52:28;21.50;99.90
17815;DHT22;9031;50.974;11.330;2022-07-22T05:54:54;21.40;99.90
17815;DHT22;9031;50.974;11.330;2022-07-22T05:57:19;21.30;99.90
17815;DHT22;9031;50.974;11.330;2022-07-22T05:59:45;21.30;99.90
17815;DHT22;9031;50.974;11.330;2022-07-22T06:02:10;21.40;99.90
17815;DHT22;9031;50.974;11.330;2022-07-22T06:04:36;21.60;99.90
17815;DHT22;9031;50.974;11.330;2022-07-22T06:07:01;21.50;99.90
17815;DHT22;9031;50.974;11.330;2022-07-22T06:09:27;21.40;99.90
17815;DHT22;9031;50.974;11.330;2022-07-22T06:11:52;21.40;99.90
17815;DHT22;9031;50.974;11.330;2022-07-22T06:14:18;21.40;99.90
17815;DHT22;9031;50.974;11.330;2022-07-22T06:16:43;21.50;99.90
17815;DHT22;9031;50.974;11.330;2022-07-22T06:19:09;21.40;99.90
17815;DHT22;9031;50.974;11.330;2022-07-22T06:21:34;21.20;99.90
17815;DHT22;9031;50.974;11.330;2022-07-22T06:24:01;21.10;99.90
17815;DHT22;9031;50.974;11.330;2022-07-22T06:26:26;21.10;99.90
17815;DHT22;9031;50.974;11.330;2022-07-22T06:28:52;21.20;99.90
17815;DHT22;9031;50.974;11.330;2022-07-22T06:31:18;21.30;99.90
17815;DHT22;9031;50.974;11.330;2022-07-22T06:33:43;21.70;99.90
17815;DHT22;9031;50.974;11.330;2022-07-22T06:36:09;22.00;99.90
17815;DHT22;9031;50.974;11.330;2022-07-22T06:38:34;22.20;99.90
17815;DHT22;9031;50.974;11.330;2022-07-22T06:41:00;22.30;99.90
17815;DHT22;9031;50.974;11.330;2022-07-22T06:43:27;22.40;99.90
17815;DHT22;9031;50.974;11.330;2022-07-22T06:45:53;22.50;99.90
17815;DHT22;9031;50.974;11.330;2022-07-22T06:48:18;22.50;99.90
17815;DHT22;9031;50.974;11.330;2022-07-22T06:50:44;22.50;99.90
17815;DHT22;9031;50.974;11.330;2022-07-22T06:53:09;22.50;99.90
17815;DHT22;9031;50.974;11.330;2022-07-22T06:55:35;22.50;99.90
17815;DHT22;9031;50.974;11.330;2022-07-22T06:58:00;22.60;99.90
17815;DHT22;9031;50.974;11.330;2022-07-22T07:00:26;22.40;99.90
17815;DHT22;9031;50.974;11.330;2022-07-22T07:02:52;22.20;99.90
17815;DHT22;9031;50.974;11.330;2022-07-22T07:05:17;22.00;99.90
17815;DHT22;9031;50.974;11.330;2022-07-22T07:07:43;22.00;99.90
17815;DHT22;9031;50.974;11.330;2022-07-22T07:10:08;22.20;99.90
17815;DHT22;9031;50.974;11.330;2022-07-22T07:12:37;22.30;99.90
17815;DHT22;9031;50.974;11.330;2022-07-22T07:15:03;22.40;99.90
17815;DHT22;9031;50.974;11.330;2022-07-22T07:17:28;22.60;99.90
17815;DHT22;9031;50.974;11.330;2022-07-22T07:19:54;22.70;99.90
17815;DHT22;9031;50.974;11.330;2022-07-22T07:22:19;22.80;99.90
17815;DHT22;9031;50.974;11.330;2022-07-22T07:24:45;23.10;99.90
17815;DHT22;9031;50.974;11.330;2022-07-22T07:27:10;23.10;99.90
17815;DHT22;9031;50.974;11.330;2022-07-22T07:29:36;23.20;99.90
17815;DHT22;9031;50.974;11.330;2022-07-22T07:32:01;23.30;99.90
17815;DHT22;9031;50.974;11.330;2022-07-22T07:34:27;23.10;99.90
17815;DHT22;9031;50.974;11.330;2022-07-22T07:36:52;23.10;99.90
17815;DHT22;9031;50.974;11.330;2022-07-22T07:39:18;23.00;99.90
17815;DHT22;9031;50.974;11.330;2022-07-22T07:41:44;23.10;99.90
17815;DHT22;9031;50.974;11.330;2022-07-22T07:44:09;23.20;99.90
17815;DHT22;9031;50.974;11.330;2022-07-22T07:46:35;23.50;99.90
17815;DHT22;9031;50.974;11.330;2022-07-22T07:49:00;23.70;99.90
17815;DHT22;9031;50.974;11.330;2022-07-22T07:51:26;23.80;99.90
17815;DHT22;9031;50.974;11.330;2022-07-22T07:53:51;23.50;99.90
17815;DHT22;9031;50.974;11.330;2022-07-22T07:56:17;23.40;99.90
17815;DHT22;9031;50.974;11.330;2022-07-22T07:58:42;23.20;99.90
17815;DHT22;9031;50.974;11.330;2022-07-22T08:01:08;23.10;99.90
17815;DHT22;9031;50.974;11.330;2022-07-22T08:03:34;23.00;99.90
17815;DHT22;9031;50.974;11.330;2022-07-22T08:06:00;22.80;99.90
17815;DHT22;9031;50.974;11.330;2022-07-22T08:08:26;23.00;99.90
17815;DHT22;9031;50.974;11.330;2022-07-22T08:10:52;23.10;99.90
17815;DHT22;9031;50.974;11.330;2022-07-22T08:13:18;23.20;99.90
17815;DHT22;9031;50.974;11.330;2022-07-22T08:15:43;23.20;99.90
17815;DHT22;9031;50.974;11.330;2022-07-22T08:18:09;23.20;99.90
17815;DHT22;9031;50.974;11.330;2022-07-22T08:20:35;22.90;99.90
17815;DHT22;9031;50.974;11.330;2022-07-22T08:23:00;23.00;99.90
17815;DHT22;9031;50.974;11.330;2022-07-22T08:25:26;23.10;99.90
17815;DHT22;9031;50.974;11.330;2022-07-22T08:27:52;23.10;99.90
17815;DHT22;9031;50.974;11.330;2022-07-22T08:30:18;23.30;99.90
17815;DHT22;9031;50.974;11.330;2022-07-22T08:32:45;23.50;99.90
17815;DHT22;9031;50.974;11.330;2022-07-22T08:35:11;23.60;99.90
17815;DHT22;9031;50.974;11.330;2022-07-22T08:37:36;23.30;99.90
17815;DHT22;9031;50.974;11.330;2022-07-22T08:40:03;23.10;99.90
17815;DHT22;9031;50.974;11.330;2022-07-22T08:42:30;23.20;99.90
17815;DHT22;9031;50.974;11.330;2022-07-22T08:44:56;23.30;99.90
17815;DHT22;9031;50.974;11.330;2022-07-22T08:47:22;23.50;99.90
17815;DHT22;9031;50.974;11.330;2022-07-22T08:49:48;23.90;99.90
17815;DHT22;9031;50.974;11.330;2022-07-22T08:52:14;24.10;99.90
17815;DHT22;9031;50.974;11.330;2022-07-22T08:54:40;24.10;99.90
17815;DHT22;9031;50.974;11.330;2022-07-22T08:57:05;24.30;99.90
17815;DHT22;9031;50.974;11.330;2022-07-22T08:59:31;24.60;99.90
17815;DHT22;9031;50.974;11.330;2022-07-22T09:02:04;24.60;99.90
17815;DHT22;9031;50.974;11.330;2022-07-22T09:04:30;24.50;99.90
17815;DHT22;9031;50.974;11.330;2022-07-22T09:06:57;24.80;99.90
17815;DHT22;9031;50.974;11.330;2022-07-22T09:09:31;25.30;99.90
17815;DHT22;9031;50.974;11.330;2022-07-22T09:12:05;25.10;99.90
17815;DHT22;9031;50.974;11.330;2022-07-22T09:14:51;25.00;99.90
17815;DHT22;9031;50.974;11.330;2022-07-22T09:17:34;24.90;99.90
17815;DHT22;9031;50.974;11.330;2022-07-22T09:20:17;25.10;99.90
17815;DHT22;9031;50.974;11.330;2022-07-22T09:22:46;25.50;99.90
17815;DHT22;9031;50.974;11.330;2022-07-22T09:27:52;26.50;99.90
17815;DHT22;9031;50.974;11.330;2022-07-22T09:30:26;26.20;99.90
17815;DHT22;9031;50.974;11.330;2022-07-22T09:32:53;25.40;99.90
17815;DHT22;9031;50.974;11.330;2022-07-22T09:35:20;25.00;99.90
17815;DHT22;9031;50.974;11.330;2022-07-22T09:37:56;25.20;99.90
17815;DHT22;9031;50.974;11.330;2022-07-22T09:40:31;25.90;99.90
17815;DHT22;9031;50.974;11.330;2022-07-22T09:43:08;26.20;99.90
17815;DHT22;9031;50.974;11.330;2022-07-22T09:45:45;26.70;99.90
17815;DHT22;9031;50.974;11.330;2022-07-22T09:48:12;25.90;99.90
17815;DHT22;9031;50.974;11.330;2022-07-22T09:50:38;26.20;99.90
17815;DHT22;9031;50.974;11.330;2022-07-22T09:53:03;27.10;99.90
17815;DHT22;9031;50.974;11.330;2022-07-22T09:55:29;27.60;99.90
17815;DHT22;9031;50.974;11.330;2022-07-22T09:57:57;28.10;99.90
17815;DHT22;9031;50.974;11.330;2022-07-22T10:00:25;28.00;99.90
17815;DHT22;9031;50.974;11.330;2022-07-22T10:02:56;27.80;99.90
17815;DHT22;9031;50.974;11.330;2022-07-22T10:05:27;28.00;99.90
17815;DHT22;9031;50.974;11.330;2022-07-22T10:07:54;28.60;99.90
17815;DHT22;9031;50.974;11.330;2022-07-22T10:10:22;28.70;99.90
17815;DHT22;9031;50.974;11.330;2022-07-22T10:12:49;28.50;99.90
17815;DHT22;9031;50.974;11.330;2022-07-22T10:15:16;28.80;99.90
17815;DHT22;9031;50.974;11.330;2022-07-22T10:17:46;28.90;99.90
17815;DHT22;9031;50.974;11.330;2022-07-22T10:20:19;29.00;99.90
17815;DHT22;9031;50.974;11.330;2022-07-22T10:25:20;28.20;99.90
17815;DHT22;9031;50.974;11.330;2022-07-22T10:30:18;28.90;99.90
17815;DHT22;9031;50.974;11.330;2022-07-22T10:32:44;29.00;99.90
17815;DHT22;9031;50.974;11.330;2022-07-22T10:37:38;28.60;99.90
17815;DHT22;9031;50.974;11.330;2022-07-22T10:45:25;29.40;99.90
17815;DHT22;9031;50.974;11.330;2022-07-22T10:47:56;29.10;99.90
17815;DHT22;9031;50.974;11.330;2022-07-22T10:53:01;28.10;99.90
17815;DHT22;9031;50.974;11.330;2022-07-22T10:55:26;28.40;99.90
17815;DHT22;9031;50.974;11.330;2022-07-22T10:57:52;28.60;99.90
17815;DHT22;9031;50.974;11.330;2022-07-22T11:00:17;29.50;99.90
17815;DHT22;9031;50.974;11.330;2022-07-22T11:02:43;30.40;99.90
17815;DHT22;9031;50.974;11.330;2022-07-22T11:05:09;31.20;99.90
17815;DHT22;9031;50.974;11.330;2022-07-22T11:07:44;31.70;99.90
17815;DHT22;9031;50.974;11.330;2022-07-22T11:10:13;31.20;99.90
17815;DHT22;9031;50.974;11.330;2022-07-22T11:12:39;31.40;99.90
17815;DHT22;9031;50.974;11.330;2022-07-22T11:15:06;31.70;99.90
17815;DHT22;9031;50.974;11.330;2022-07-22T11:17:32;32.20;99.90
17815;DHT22;9031;50.974;11.330;2022-07-22T11:20:04;32.70;99.90
17815;DHT22;9031;50.974;11.330;2022-07-22T11:22:30;32.50;99.90
17815;DHT22;9031;50.974;11.330;2022-07-22T11:24:56;33.10;99.90
17815;DHT22;9031;50.974;11.330;2022-07-22T11:27:22;34.10;99.90
17815;DHT22;9031;50.974;11.330;2022-07-22T11:29:49;33.00;99.90
17815;DHT22;9031;50.974;11.330;2022-07-22T11:32:16;32.60;99.90
17815;DHT22;9031;50.974;11.330;2022-07-22T11:34:46;33.50;99.90
17815;DHT22;9031;50.974;11.330;2022-07-22T11:37:13;33.20;99.90
17815;DHT22;9031;50.974;11.330;2022-07-22T11:39:40;32.50;99.90
17815;DHT22;9031;50.974;11.330;2022-07-22T11:42:06;32.90;99.90
17815;DHT22;9031;50.974;11.330;2022-07-22T11:44:34;33.80;99.90
17815;DHT22;9031;50.974;11.330;2022-07-22T11:47:00;34.10;99.70
17815;DHT22;9031;50.974;11.330;2022-07-22T11:49:31;34.40;99.50
17815;DHT22;9031;50.974;11.330;2022-07-22T11:52:08;34.00;99.00
17815;DHT22;9031;50.974;11.330;2022-07-22T11:54:37;34.00;99.40
17815;DHT22;9031;50.974;11.330;2022-07-22T11:57:03;34.50;98.50
17815;DHT22;9031;50.974;11.330;2022-07-22T11:59:29;35.40;97.80
17815;DHT22;9031;50.974;11.330;2022-07-22T12:01:54;35.80;97.20
17815;DHT22;9031;50.974;11.330;2022-07-22T12:04:23;34.40;97.60
17815;DHT22;9031;50.974;11.330;2022-07-22T12:06:49;33.90;98.30
17815;DHT22;9031;50.974;11.330;2022-07-22T12:09:21;34.80;97.20
17815;DHT22;9031;50.974;11.330;2022-07-22T12:11:49;34.40;97.20
17815;DHT22;9031;50.974;11.330;2022-07-22T12:14:21;34.50;97.00
17815;DHT22;9031;50.974;11.330;2022-07-22T12:19:25;35.30;95.90
17815;DHT22;9031;50.974;11.330;2022-07-22T12:21:57;34.50;96.20
17815;DHT22;9031;50.974;11.330;2022-07-22T12:24:32;33.80;96.80
17815;DHT22;9031;50.974;11.330;2022-07-22T12:27:05;34.20;96.50
17815;DHT22;9031;50.974;11.330;2022-07-22T12:32:08;35.70;95.50
17815;DHT22;9031;50.974;11.330;2022-07-22T12:34:47;35.40;95.20
17815;DHT22;9031;50.974;11.330;2022-07-22T12:37:26;35.00;95.60
17815;DHT22;9031;50.974;11.330;2022-07-22T12:39:56;34.90;95.30
17815;DHT22;9031;50.974;11.330;2022-07-22T12:42:23;35.90;94.90
17815;DHT22;9031;50.974;11.330;2022-07-22T12:53:15;36.40;94.00
17815;DHT22;9031;50.974;11.330;2022-07-22T12:55:53;35.90;93.90
17815;DHT22;9031;50.974;11.330;2022-07-22T12:58:27;35.40;93.80
17815;DHT22;9031;50.974;11.330;2022-07-22T13:00:56;35.30;94.20
17815;DHT22;9031;50.974;11.330;2022-07-22T13:03:22;35.60;93.70
17815;DHT22;9031;50.974;11.330;2022-07-22T13:05:50;36.40;93.60
17815;DHT22;9031;50.974;11.330;2022-07-22T13:08:16;37.10;92.70
17815;DHT22;9031;50.974;11.330;2022-07-22T13:10:42;36.70;92.50
17815;DHT22;9031;50.974;11.330;2022-07-22T13:13:08;35.80;93.10
17815;DHT22;9031;50.974;11.330;2022-07-22T13:15:34;35.30;93.80
17815;DHT22;9031;50.974;11.330;2022-07-22T13:18:00;36.50;93.20
17815;DHT22;9031;50.974;11.330;2022-07-22T13:20:25;37.50;92.20
17815;DHT22;9031;50.974;11.330;2022-07-22T13:22:51;38.20;91.60
17815;DHT22;9031;50.974;11.330;2022-07-22T13:25:16;38.70;90.90
17815;DHT22;9031;50.974;11.330;2022-07-22T13:27:42;38.90;90.10
17815;DHT22;9031;50.974;11.330;2022-07-22T13:30:08;38.50;90.20
17815;DHT22;9031;50.974;11.330;2022-07-22T13:32:34;37.50;90.60
17815;DHT22;9031;50.974;11.330;2022-07-22T13:35:00;36.70;91.00
17815;DHT22;9031;50.974;11.330;2022-07-22T13:37:25;37.10;91.00
17815;DHT22;9031;50.974;11.330;2022-07-22T13:39:51;37.30;90.60
17815;DHT22;9031;50.974;11.330;2022-07-22T13:42:17;37.60;90.60
17815;DHT22;9031;50.974;11.330;2022-07-22T13:44:47;37.20;90.80
17815;DHT22;9031;50.974;11.330;2022-07-22T13:47:13;36.90;90.90
17815;DHT22;9031;50.974;11.330;2022-07-22T13:49:39;36.80;90.60
17815;DHT22;9031;50.974;11.330;2022-07-22T13:52:05;36.30;90.80
17815;DHT22;9031;50.974;11.330;2022-07-22T13:54:31;35.80;91.00
17815;DHT22;9031;50.974;11.330;2022-07-22T13:56:58;36.80;90.70
17815;DHT22;9031;50.974;11.330;2022-07-22T13:59:24;37.10;90.10
17815;DHT22;9031;50.974;11.330;2022-07-22T14:01:49;36.30;90.80
17815;DHT22;9031;50.974;11.330;2022-07-22T14:04:15;37.30;90.50
17815;DHT22;9031;50.974;11.330;2022-07-22T14:06:40;38.40;89.80
17815;DHT22;9031;50.974;11.330;2022-07-22T14:09:06;38.70;88.70
17815;DHT22;9031;50.974;11.330;2022-07-22T14:11:31;38.70;87.30
17815;DHT22;9031;50.974;11.330;2022-07-22T14:13:57;38.30;88.80
17815;DHT22;9031;50.974;11.330;2022-07-22T14:16:22;38.90;87.00
17815;DHT22;9031;50.974;11.330;2022-07-22T14:19:08;39.00;86.50
17815;DHT22;9031;50.974;11.330;2022-07-22T14:21:35;38.20;86.70
17815;DHT22;9031;50.974;11.330;2022-07-22T14:24:02;37.00;88.20
17815;DHT22;9031;50.974;11.330;2022-07-22T14:26:28;36.10;89.70
17815;DHT22;9031;50.974;11.330;2022-07-22T14:28:54;36.70;90.20
17815;DHT22;9031;50.974;11.330;2022-07-22T14:31:20;35.90;90.00
17815;DHT22;9031;50.974;11.330;2022-07-22T14:33:46;35.90;90.50
17815;DHT22;9031;50.974;11.330;2022-07-22T14:36:12;36.00;90.40
17815;DHT22;9031;50.974;11.330;2022-07-22T14:38:37;36.50;90.30
17815;DHT22;9031;50.974;11.330;2022-07-22T14:41:03;37.10;89.70
17815;DHT22;9031;50.974;11.330;2022-07-22T14:43:28;36.80;90.00
17815;DHT22;9031;50.974;11.330;2022-07-22T14:45:54;37.40;88.50
17815;DHT22;9031;50.974;11.330;2022-07-22T14:48:19;37.80;87.50
17815;DHT22;9031;50.974;11.330;2022-07-22T14:50:45;36.80;88.20
17815;DHT22;9031;50.974;11.330;2022-07-22T14:53:12;36.90;88.60
17815;DHT22;9031;50.974;11.330;2022-07-22T14:55:37;38.10;88.10
17815;DHT22;9031;50.974;11.330;2022-07-22T14:58:03;37.10;87.10
17815;DHT22;9031;50.974;11.330;2022-07-22T15:00:28;36.50;88.70
17815;DHT22;9031;50.974;11.330;2022-07-22T15:02:54;36.70;88.10
17815;DHT22;9031;50.974;11.330;2022-07-22T15:05:20;36.30;88.70
17815;DHT22;9031;50.974;11.330;2022-07-22T15:07:45;35.90;88.90
17815;DHT22;9031;50.974;11.330;2022-07-22T15:10:11;35.20;90.20
17815;DHT22;9031;50.974;11.330;2022-07-22T15:12:36;34.70;90.80
17815;DHT22;9031;50.974;11.330;2022-07-22T15:15:03;35.80;90.30
17815;DHT22;9031;50.974;11.330;2022-07-22T15:17:34;34.90;90.20
17815;DHT22;9031;50.974;11.330;2022-07-22T15:20:00;34.70;90.60
17815;DHT22;9031;50.974;11.330;2022-07-22T15:22:25;34.70;90.60
17815;DHT22;9031;50.974;11.330;2022-07-22T15:24:51;34.60;90.70
17815;DHT22;9031;50.974;11.330;2022-07-22T15:27:16;34.80;90.40
17815;DHT22;9031;50.974;11.330;2022-07-22T15:29:43;34.60;90.50
17815;DHT22;9031;50.974;11.330;2022-07-22T15:32:09;34.50;90.70
17815;DHT22;9031;50.974;11.330;2022-07-22T15:34:34;34.40;90.80
17815;DHT22;9031;50.974;11.330;2022-07-22T15:37:00;35.20;90.70
17815;DHT22;9031;50.974;11.330;2022-07-22T15:39:26;35.10;89.90
17815;DHT22;9031;50.974;11.330;2022-07-22T15:41:51;35.40;89.50
17815;DHT22;9031;50.974;11.330;2022-07-22T15:44:17;34.90;90.00
17815;DHT22;9031;50.974;11.330;2022-07-22T15:46:42;35.40;90.20
17815;DHT22;9031;50.974;11.330;2022-07-22T15:49:08;36.10;88.80
17815;DHT22;9031;50.974;11.330;2022-07-22T15:51:35;36.30;88.30
17815;DHT22;9031;50.974;11.330;2022-07-22T15:54:01;35.60;88.10
17815;DHT22;9031;50.974;11.330;2022-07-22T15:56:26;34.90;90.20
17815;DHT22;9031;50.974;11.330;2022-07-22T15:58:52;35.20;90.00